createdAt,value
2019-02-20T00:02:09.535Z,21.30
2019-02-20T00:04:38.123Z,15.90
2019-02-20T00:07:06.742Z,32.63
2019-02-20T00:09:35.363Z,24.33
2019-02-20T00:12:03.985Z,27.87
2019-02-20T00:14:32.590Z,22.43
2019-02-20T00:17:01.204Z,23.50
2019-02-20T00:19:29.784Z,33.97
2019-02-20T00:21:58.380Z,25.43
2019-02-20T00:24:26.978Z,28.73
2019-02-20T00:26:55.561Z,26.10
2019-02-20T00:29:24.161Z,27.57
2019-02-20T00:31:52.784Z,24.73
2019-02-20T00:34:21.393Z,23.37
2019-02-20T00:36:50.037Z,26.90
2019-02-20T00:39:18.605Z,29.63
2019-02-20T00:41:47.191Z,25.83
2019-02-20T00:44:37.784Z,24.27
2019-02-20T00:47:25.536Z,20.80
2019-02-20T00:49:54.510Z,29.13
2019-02-20T00:52:29.749Z,20.07
2019-02-20T00:54:58.366Z,33.73
2019-02-20T00:57:26.969Z,27.27
2019-02-20T00:59:55.578Z,22.93
2019-02-20T01:02:24.177Z,25.13
2019-02-20T01:04:52.767Z,27.97
2019-02-20T01:07:21.362Z,14.30
2019-02-20T01:09:49.977Z,26.93
2019-02-20T01:12:18.574Z,22.83
2019-02-20T01:14:47.155Z,26.90
2019-02-20T01:17:16.216Z,28.83
2019-02-20T01:19:44.817Z,21.40
2019-02-20T01:22:15.423Z,23.00
2019-02-20T01:24:44.421Z,27.60
2019-02-20T01:27:13.053Z,26.30
2019-02-20T01:29:41.680Z,27.13
2019-02-20T01:32:10.292Z,30.77
2019-02-20T01:34:38.872Z,17.77
2019-02-20T01:37:07.451Z,30.83
2019-02-20T01:39:36.079Z,23.30
2019-02-20T01:42:05.072Z,30.83
2019-02-20T01:44:33.682Z,27.93
2019-02-20T01:47:02.329Z,20.60
2019-02-20T01:49:30.923Z,23.63
2019-02-20T01:51:59.528Z,27.57
2019-02-20T01:54:28.116Z,29.57
2019-02-20T01:56:57.285Z,29.77
2019-02-20T01:59:26.001Z,26.70
2019-02-20T02:01:54.602Z,32.80
2019-02-20T02:04:23.214Z,23.27
2019-02-20T02:06:51.855Z,23.67
2019-02-20T02:09:20.446Z,29.30
2019-02-20T02:11:49.028Z,23.73
2019-02-20T02:14:17.613Z,24.40
2019-02-20T02:16:46.191Z,26.53
2019-02-20T02:19:14.809Z,29.70
2019-02-20T02:21:43.457Z,25.63
2019-02-20T02:24:12.055Z,37.23
2019-02-20T02:26:40.688Z,30.70
2019-02-20T02:29:09.284Z,31.87
2019-02-20T02:31:37.896Z,28.63
2019-02-20T02:34:06.487Z,37.30
2019-02-20T02:36:35.084Z,25.20
2019-02-20T02:39:05.935Z,28.07
2019-02-20T02:41:36.605Z,21.20
2019-02-20T02:44:05.208Z,27.67
2019-02-20T02:46:33.796Z,36.80
2019-02-20T02:49:05.584Z,42.13
2019-02-20T02:51:34.184Z,24.43
2019-02-20T02:54:02.934Z,28.83
2019-02-20T02:56:31.561Z,35.23
2019-02-20T02:59:00.132Z,29.77
2019-02-20T03:01:28.737Z,25.73
2019-02-20T03:03:57.449Z,42.83
2019-02-20T03:06:26.084Z,30.17
2019-02-20T03:08:54.692Z,33.10
2019-02-20T03:11:23.280Z,31.37
2019-02-20T03:13:51.892Z,31.33
2019-02-20T03:16:20.509Z,34.80
2019-02-20T03:18:49.110Z,29.93
2019-02-20T03:21:17.721Z,22.60
2019-02-20T03:23:46.418Z,28.17
2019-02-20T03:26:15.100Z,26.20
2019-02-20T03:28:43.727Z,21.27
2019-02-20T03:31:12.319Z,29.63
2019-02-20T03:33:40.934Z,29.10
2019-02-20T03:36:09.598Z,25.20
2019-02-20T03:38:38.181Z,34.70
2019-02-20T03:41:06.803Z,23.40
2019-02-20T03:43:35.430Z,35.70
2019-02-20T03:46:06.522Z,28.93
2019-02-20T03:48:35.100Z,30.40
2019-02-20T03:51:03.764Z,37.07
2019-02-20T03:53:32.384Z,26.63
2019-02-20T03:56:01.622Z,32.87
2019-02-20T03:58:30.200Z,36.73
2019-02-20T04:00:58.813Z,30.80
2019-02-20T04:03:27.724Z,38.40
2019-02-20T04:05:56.301Z,24.00
2019-02-20T04:08:24.913Z,35.97
2019-02-20T04:10:53.523Z,30.93
2019-02-20T04:13:22.115Z,28.00
2019-02-20T04:15:50.748Z,24.00
2019-02-20T04:18:19.330Z,32.60
2019-02-20T04:20:48.009Z,32.00
2019-02-20T04:23:16.599Z,30.97
2019-02-20T04:25:45.214Z,31.83
2019-02-20T04:28:13.793Z,20.07
2019-02-20T04:30:42.421Z,32.27
2019-02-20T04:33:11.030Z,29.43
2019-02-20T04:35:39.613Z,23.93
2019-02-20T04:38:08.223Z,24.90
2019-02-20T04:40:36.793Z,21.40
2019-02-20T04:43:05.377Z,22.93
2019-02-20T04:45:34.000Z,24.23
2019-02-20T04:48:03.668Z,22.77
2019-02-20T04:50:32.283Z,21.40
2019-02-20T04:53:00.922Z,29.57
2019-02-20T04:55:29.572Z,30.90
2019-02-20T04:58:20.617Z,25.83
2019-02-20T05:00:49.233Z,17.13
2019-02-20T05:03:17.837Z,27.00
2019-02-20T05:05:46.453Z,25.13
2019-02-20T05:08:16.532Z,21.00
2019-02-20T05:10:48.125Z,22.13
2019-02-20T05:13:16.822Z,18.63
2019-02-20T05:15:45.425Z,19.67
2019-02-20T05:18:15.197Z,22.70
2019-02-20T05:20:43.801Z,26.70
2019-02-20T05:23:12.385Z,24.60
2019-02-20T05:25:41.094Z,11.97
2019-02-20T05:28:09.743Z,19.30
2019-02-20T05:30:38.351Z,29.07
2019-02-20T05:33:06.989Z,21.47
2019-02-20T05:35:35.562Z,14.47
2019-02-20T05:38:04.203Z,20.80
2019-02-20T05:40:32.788Z,15.60
2019-02-20T05:43:01.541Z,17.00
2019-02-20T05:45:30.115Z,15.37
2019-02-20T05:47:58.732Z,28.60
2019-02-20T05:50:27.376Z,20.87
2019-02-20T05:52:56.001Z,27.50
2019-02-20T05:55:24.769Z,23.03
2019-02-20T05:57:53.351Z,22.63
2019-02-20T06:00:22.069Z,22.60
2019-02-20T06:02:50.656Z,12.53
2019-02-20T06:05:19.493Z,17.93
2019-02-20T06:07:48.068Z,11.93
2019-02-20T06:10:19.433Z,12.13
2019-02-20T06:12:48.071Z,11.33
2019-02-20T06:15:18.223Z,13.93
2019-02-20T06:17:47.165Z,12.67
2019-02-20T06:20:15.787Z,19.33
2019-02-20T06:22:44.373Z,13.27
2019-02-20T06:25:13.090Z,17.63
2019-02-20T06:27:41.695Z,16.77
2019-02-20T06:30:10.414Z,12.53
2019-02-20T06:32:39.049Z,17.03
2019-02-20T06:35:07.621Z,19.07
2019-02-20T06:37:36.196Z,20.70
2019-02-20T06:40:04.843Z,16.47
2019-02-20T06:42:33.445Z,17.93
2019-02-20T06:45:02.136Z,13.43
2019-02-20T06:47:30.736Z,19.30
2019-02-20T06:50:01.047Z,13.57
2019-02-20T06:52:29.627Z,22.33
2019-02-20T06:54:58.217Z,16.53
2019-02-20T06:57:26.805Z,25.63
2019-02-20T06:59:55.431Z,16.23
2019-02-20T07:02:24.431Z,14.57
2019-02-20T07:05:45.973Z,17.33
2019-02-20T07:08:52.173Z,18.77
2019-02-20T07:11:46.611Z,21.53
2019-02-20T07:15:00.537Z,14.80
2019-02-20T07:18:12.668Z,23.43
2019-02-20T07:21:11.206Z,17.43
2019-02-20T07:24:18.034Z,19.83
2019-02-20T07:27:30.512Z,22.97
2019-02-20T07:30:05.190Z,21.07
2019-02-20T07:32:33.956Z,14.93
2019-02-20T07:35:02.677Z,18.37
2019-02-20T07:37:31.308Z,24.47
2019-02-20T07:39:59.930Z,24.37
2019-02-20T07:42:28.556Z,12.47
2019-02-20T07:44:57.155Z,19.47
2019-02-20T07:47:25.780Z,18.97
2019-02-20T07:49:54.506Z,19.47
2019-02-20T07:52:23.120Z,16.23
2019-02-20T07:54:52.125Z,17.47
2019-02-20T07:57:40.136Z,22.40
2019-02-20T08:00:10.563Z,21.87
2019-02-20T08:02:39.479Z,24.77
2019-02-20T08:05:08.117Z,25.60
2019-02-20T08:07:36.860Z,18.13
2019-02-20T08:10:06.873Z,15.37
2019-02-20T08:12:35.514Z,10.83
2019-02-20T08:15:04.200Z,24.10
2019-02-20T08:17:52.197Z,17.37
2019-02-20T08:20:21.087Z,16.87
2019-02-20T08:22:49.676Z,21.90
2019-02-20T08:25:22.789Z,12.17
2019-02-20T08:27:48.902Z,24.03
2019-02-20T08:30:17.618Z,19.73
2019-02-20T08:32:46.191Z,17.27
2019-02-20T08:35:15.085Z,20.30
2019-02-20T08:37:43.791Z,29.60
2019-02-20T08:40:14.197Z,22.43
2019-02-20T08:42:45.037Z,19.30
2019-02-20T08:45:13.741Z,20.13
2019-02-20T08:47:42.369Z,23.93
2019-02-20T08:50:11.411Z,21.07
2019-02-20T08:52:41.245Z,24.47
2019-02-20T08:55:09.897Z,21.47
2019-02-20T08:57:38.569Z,26.83
2019-02-20T09:00:09.628Z,24.47
2019-02-20T09:02:40.062Z,19.53
2019-02-20T09:05:08.762Z,23.03
2019-02-20T09:07:37.466Z,23.23
2019-02-20T09:10:06.648Z,19.87
2019-02-20T09:12:35.248Z,21.80
2019-02-20T09:15:16.880Z,24.37
2019-02-20T09:17:45.463Z,28.27
2019-02-20T09:20:14.085Z,26.07
2019-02-20T09:22:42.836Z,24.77
2019-02-20T09:25:19.537Z,27.83
2019-02-20T09:27:42.155Z,35.10
2019-02-20T09:30:12.349Z,20.87
2019-02-20T09:32:40.963Z,25.43
2019-02-20T09:35:09.601Z,24.87
2019-02-20T09:37:38.312Z,24.43
2019-02-20T09:40:09.173Z,20.03
2019-02-20T09:42:39.584Z,21.73
2019-02-20T09:45:08.311Z,24.23
2019-02-20T09:47:37.340Z,21.47
2019-02-20T09:50:05.969Z,22.93
2019-02-20T09:52:34.539Z,24.53
2019-02-20T09:55:22.481Z,23.80
2019-02-20T09:57:54.133Z,19.03
2019-02-20T10:00:23.070Z,16.23
2019-02-20T10:02:51.690Z,23.60
2019-02-20T10:05:20.268Z,16.83
2019-02-20T10:07:48.904Z,21.23
2019-02-20T10:10:17.556Z,15.90
2019-02-20T10:12:46.197Z,13.87
2019-02-20T10:15:14.976Z,19.37
2019-02-20T10:17:43.647Z,16.30
2019-02-20T10:20:12.243Z,19.47
2019-02-20T10:23:00.169Z,20.03
2019-02-20T10:25:28.780Z,25.10
2019-02-20T10:27:57.425Z,18.40
2019-02-20T10:30:26.012Z,19.77
2019-02-20T10:32:54.621Z,16.73
2019-02-20T10:35:28.971Z,23.67
2019-02-20T10:37:57.556Z,14.33
2019-02-20T10:40:26.511Z,20.33
2019-02-20T10:42:55.231Z,16.50
2019-02-20T10:45:23.831Z,21.90
2019-02-20T10:47:52.423Z,16.27
2019-02-20T10:50:21.073Z,18.80
2019-02-20T10:52:49.684Z,19.37
2019-02-20T10:55:18.412Z,15.97
2019-02-20T10:57:47.060Z,20.17
2019-02-20T11:00:23.970Z,22.13
2019-02-20T11:02:50.913Z,19.67
2019-02-20T11:05:19.639Z,15.37
2019-02-20T11:07:48.256Z,13.93
2019-02-20T11:10:17.012Z,13.70
2019-02-20T11:12:45.617Z,12.77
2019-02-20T11:15:14.293Z,11.00
2019-02-20T11:17:43.008Z,12.83
2019-02-20T11:20:13.694Z,21.57
2019-02-20T11:22:42.551Z,28.37
2019-02-20T11:25:11.542Z,21.57
2019-02-20T11:27:40.149Z,13.33
2019-02-20T11:30:11.739Z,11.60
2019-02-20T11:32:40.398Z,29.33
2019-02-20T11:35:09.040Z,22.90
2019-02-20T11:37:37.693Z,26.67
2019-02-20T11:40:07.124Z,18.93
2019-02-20T11:42:35.761Z,21.43
2019-02-20T11:45:04.553Z,19.67
2019-02-20T11:47:33.665Z,12.43
2019-02-20T11:50:03.683Z,12.30
2019-02-20T11:52:38.112Z,18.53
2019-02-20T11:55:05.510Z,20.77
2019-02-20T11:58:02.222Z,20.67
2019-02-20T12:00:50.209Z,15.27
2019-02-20T12:03:18.836Z,11.20
2019-02-20T12:05:47.449Z,24.73
2019-02-20T12:08:17.135Z,13.53
2019-02-20T12:10:47.368Z,18.13
2019-02-20T12:13:16.047Z,15.47
2019-02-20T12:15:44.668Z,12.93
2019-02-20T12:18:17.353Z,14.00
2019-02-20T12:20:43.951Z,15.07
2019-02-20T12:23:12.543Z,10.97
2019-02-20T12:25:41.163Z,16.63
2019-02-20T12:28:09.735Z,9.53
2019-02-20T12:30:38.347Z,20.47
2019-02-20T12:33:07.017Z,13.07
2019-02-20T12:35:35.624Z,15.00
2019-02-20T12:38:04.205Z,18.13
2019-02-20T12:40:32.824Z,12.20
2019-02-20T12:43:01.583Z,17.50
2019-02-20T12:45:31.285Z,11.07
2019-02-20T12:47:59.986Z,10.40
2019-02-20T12:50:28.593Z,11.80
2019-02-20T12:52:57.192Z,7.90
2019-02-20T12:55:25.845Z,9.50
2019-02-20T12:57:54.441Z,15.10
2019-02-20T13:00:23.227Z,13.30
2019-02-20T13:02:52.096Z,9.57
2019-02-20T13:05:20.916Z,12.30
2019-02-20T13:07:49.555Z,12.47
2019-02-20T13:10:18.151Z,18.03
2019-02-20T13:12:46.863Z,10.70
2019-02-20T13:15:15.793Z,9.63
2019-02-20T13:17:44.411Z,8.27
2019-02-20T13:20:13.017Z,8.00
2019-02-20T13:22:41.682Z,9.17
2019-02-20T13:25:10.380Z,8.67
2019-02-20T13:27:40.266Z,8.20
2019-02-20T13:30:09.452Z,15.27
2019-02-20T13:32:38.087Z,10.43
2019-02-20T13:35:06.937Z,8.27
2019-02-20T13:37:35.614Z,11.10
2019-02-20T13:40:04.344Z,15.33
2019-02-20T13:42:33.044Z,8.73
2019-02-20T13:45:01.817Z,11.47
2019-02-20T13:47:30.928Z,9.47
2019-02-20T13:49:59.576Z,12.17
2019-02-20T13:52:28.237Z,12.20
2019-02-20T13:54:58.708Z,16.80
2019-02-20T13:57:27.330Z,13.30
2019-02-20T13:59:55.962Z,7.23
2019-02-20T14:02:24.555Z,9.33
2019-02-20T14:04:53.496Z,12.57
2019-02-20T14:07:22.136Z,14.93
2019-02-20T14:09:50.760Z,10.43
2019-02-20T14:12:20.629Z,12.63
2019-02-20T14:14:49.359Z,26.17
2019-02-20T14:17:26.205Z,7.00
2019-02-20T14:19:48.416Z,10.30
2019-02-20T14:22:20.806Z,9.60
2019-02-20T14:24:49.623Z,7.00
2019-02-20T14:27:18.720Z,11.17
2019-02-20T14:29:47.407Z,7.23
2019-02-20T14:32:16.372Z,7.03
2019-02-20T14:34:45.562Z,5.00
2019-02-20T14:37:15.535Z,5.33
2019-02-20T14:39:44.125Z,10.17
2019-02-20T14:42:13.198Z,6.97
2019-02-20T14:44:41.784Z,6.10
2019-02-20T14:47:10.402Z,15.33
2019-02-20T14:49:39.110Z,7.17
2019-02-20T14:52:07.768Z,7.10
2019-02-20T14:54:36.607Z,11.40
2019-02-20T14:57:05.290Z,15.70
2019-02-20T14:59:53.522Z,7.40
2019-02-20T15:02:22.091Z,6.37
2019-02-20T15:04:50.751Z,9.23
2019-02-20T15:07:38.789Z,5.17
2019-02-20T15:10:07.864Z,7.83
2019-02-20T15:12:36.500Z,4.63
2019-02-20T15:15:10.630Z,4.83
2019-02-20T15:17:35.723Z,14.27
2019-02-20T15:20:04.458Z,3.93
2019-02-20T15:22:33.421Z,7.37
2019-02-20T15:25:06.129Z,4.50
2019-02-20T15:27:34.812Z,7.30
2019-02-20T15:30:04.380Z,9.20
2019-02-20T15:32:33.059Z,7.40
2019-02-20T15:35:03.047Z,6.37
2019-02-20T15:37:32.116Z,7.97
2019-02-20T15:40:00.874Z,7.43
2019-02-20T15:42:29.485Z,9.67
2019-02-20T15:44:58.178Z,7.97
2019-02-20T15:47:26.769Z,4.50
2019-02-20T15:49:55.401Z,7.10
2019-02-20T15:52:24.090Z,5.00
2019-02-20T15:54:53.162Z,13.63
2019-02-20T15:57:21.786Z,7.90
2019-02-20T15:59:50.643Z,6.80
2019-02-20T16:02:19.235Z,10.97
2019-02-20T16:04:47.843Z,10.47
2019-02-20T16:07:16.792Z,8.60
2019-02-20T16:09:48.405Z,5.80
2019-02-20T16:12:20.299Z,7.90
2019-02-20T16:14:48.933Z,12.17
2019-02-20T16:17:17.515Z,8.47
2019-02-20T16:19:46.117Z,11.33
2019-02-20T16:22:14.784Z,5.03
2019-02-20T16:24:43.364Z,7.63
2019-02-20T16:27:12.288Z,7.00
2019-02-20T16:29:40.916Z,9.43
2019-02-20T16:32:09.511Z,7.17
2019-02-20T16:34:41.120Z,8.90
2019-02-20T16:37:09.733Z,13.90
2019-02-20T16:39:38.361Z,9.63
2019-02-20T16:42:07.343Z,8.67
2019-02-20T16:44:35.941Z,8.00
2019-02-20T16:47:05.762Z,9.17
2019-02-20T16:49:53.653Z,9.83
2019-02-20T16:52:22.246Z,6.93
2019-02-20T16:54:51.248Z,7.67
2019-02-20T16:57:19.893Z,12.13
2019-02-20T16:59:48.498Z,10.77
2019-02-20T17:02:19.260Z,11.87
2019-02-20T17:04:47.840Z,6.53
2019-02-20T17:07:19.155Z,7.37
2019-02-20T17:09:48.129Z,9.47
2019-02-20T17:12:17.788Z,10.60
2019-02-20T17:14:46.422Z,10.00
2019-02-20T17:17:16.653Z,7.33
2019-02-20T17:19:45.235Z,9.07
2019-02-20T17:22:13.832Z,10.13
2019-02-20T17:24:42.709Z,5.87
2019-02-20T17:27:11.293Z,9.23
2019-02-20T17:29:39.960Z,6.17
2019-02-20T17:32:08.645Z,6.50
2019-02-20T17:34:37.226Z,8.53
2019-02-20T17:37:05.824Z,6.97
2019-02-20T17:39:34.407Z,6.90
2019-02-20T17:42:03.255Z,9.97
2019-02-20T17:44:31.848Z,7.53
2019-02-20T17:47:00.424Z,10.17
2019-02-20T17:49:29.058Z,12.43
2019-02-20T17:51:57.652Z,9.10
2019-02-20T17:54:26.257Z,7.57
2019-02-20T17:56:55.047Z,7.50
2019-02-20T17:59:23.651Z,11.93
2019-02-20T18:01:52.243Z,11.53
2019-02-20T18:04:20.846Z,9.60
2019-02-20T18:06:49.700Z,10.37
2019-02-20T18:09:18.318Z,8.03
2019-02-20T18:11:46.905Z,7.80
2019-02-20T18:14:15.540Z,8.03
2019-02-20T18:16:44.132Z,13.30
2019-02-20T18:19:12.703Z,10.97
2019-02-20T18:21:41.683Z,8.70
2019-02-20T18:24:10.351Z,12.37
2019-02-20T18:26:38.950Z,14.10
2019-02-20T18:29:26.850Z,10.13
2019-02-20T18:31:55.482Z,9.00
2019-02-20T18:34:24.323Z,7.87
2019-02-20T18:36:52.915Z,7.90
2019-02-20T18:39:21.507Z,13.27
2019-02-20T18:41:50.087Z,9.83
2019-02-20T18:44:18.698Z,10.30
2019-02-20T18:46:47.286Z,11.87
2019-02-20T18:49:20.934Z,12.97
2019-02-20T18:51:49.015Z,13.50
2019-02-20T18:54:17.618Z,8.60
2019-02-20T18:56:46.204Z,18.67
2019-02-20T18:59:15.831Z,9.63
2019-02-20T19:01:44.411Z,12.07
2019-02-20T19:04:13.246Z,14.20
2019-02-20T19:06:41.885Z,8.63
2019-02-20T19:09:17.974Z,11.83
2019-02-20T19:12:08.905Z,15.43
2019-02-20T19:15:04.758Z,12.00
2019-02-20T19:18:04.333Z,12.67
2019-02-20T19:20:57.226Z,17.30
2019-02-20T19:24:41.113Z,12.97
2019-02-20T19:27:34.885Z,26.80
2019-02-20T19:30:44.460Z,15.33
2019-02-20T19:33:36.341Z,12.37
2019-02-20T19:36:29.252Z,11.53
2019-02-20T19:39:27.028Z,14.57
2019-02-20T19:42:36.214Z,20.10
2019-02-20T19:45:39.343Z,15.73
2019-02-20T19:48:52.385Z,14.40
2019-02-20T19:52:11.677Z,10.03
2019-02-20T19:54:45.090Z,12.37
2019-02-20T19:57:39.049Z,12.40
2019-02-20T20:00:22.561Z,11.17
2019-02-20T20:03:13.943Z,10.60
2019-02-20T20:06:26.044Z,9.20
2019-02-20T20:09:16.391Z,9.43
2019-02-20T20:12:35.241Z,12.50
2019-02-20T20:15:22.718Z,10.73
2019-02-20T20:18:41.103Z,15.40
2019-02-20T20:21:22.192Z,12.33
2019-02-20T20:24:26.869Z,17.00
2019-02-20T20:27:22.041Z,19.13
2019-02-20T20:30:40.790Z,21.83
2019-02-20T20:33:40.704Z,17.23
2019-02-20T20:36:40.495Z,16.03
2019-02-20T20:40:11.883Z,14.07
2019-02-20T20:43:04.149Z,18.63
2019-02-20T20:46:13.287Z,16.67
2019-02-20T20:49:13.444Z,18.37
2019-02-20T20:52:18.685Z,20.13
2019-02-20T20:55:10.150Z,17.33
2019-02-20T20:58:09.235Z,18.77
2019-02-20T21:01:11.305Z,19.27
2019-02-20T21:03:54.284Z,20.00
2019-02-20T21:06:40.288Z,16.23
2019-02-20T21:09:28.817Z,19.77
2019-02-20T21:12:31.395Z,18.43
2019-02-20T21:15:20.224Z,18.93
2019-02-20T21:18:25.495Z,15.80
2019-02-20T21:21:03.118Z,17.03
2019-02-20T21:23:58.729Z,16.23
2019-02-20T21:26:55.902Z,19.37
2019-02-20T21:29:52.157Z,23.93
2019-02-20T21:32:45.883Z,19.43
2019-02-20T21:36:03.677Z,17.47
2019-02-20T21:39:25.412Z,19.53
2019-02-20T21:42:09.978Z,19.07
2019-02-20T21:44:56.372Z,20.63
2019-02-20T21:47:57.823Z,20.30
2019-02-20T21:50:42.052Z,18.57
2019-02-20T21:53:56.420Z,18.37
2019-02-20T21:57:02.334Z,22.03
2019-02-20T21:59:46.138Z,21.23
2019-02-20T22:02:53.319Z,26.43
2019-02-20T22:05:41.790Z,33.20
2019-02-20T22:08:23.824Z,21.63
2019-02-20T22:11:17.565Z,37.10
2019-02-20T22:14:16.535Z,23.75
2019-02-20T22:17:17.915Z,22.23
2019-02-20T22:20:23.830Z,24.00
2019-02-20T22:23:21.494Z,23.20
2019-02-20T22:26:17.836Z,26.30
2019-02-20T22:29:31.351Z,23.97
2019-02-20T22:32:40.797Z,24.33
2019-02-20T22:35:59.917Z,22.90
2019-02-20T22:39:02.079Z,17.13
2019-02-20T22:42:07.817Z,17.70
2019-02-20T22:45:22.929Z,17.70
2019-02-20T22:48:26.740Z,21.93
2019-02-20T22:51:21.947Z,19.83
2019-02-20T22:54:03.970Z,16.27
2019-02-20T22:57:04.030Z,18.37
2019-02-20T23:00:19.854Z,18.47
2019-02-20T23:03:19.955Z,17.70
2019-02-20T23:06:17.538Z,18.83
2019-02-20T23:09:33.592Z,17.93
2019-02-20T23:12:17.002Z,20.33
2019-02-20T23:14:56.344Z,24.30
2019-02-20T23:17:27.072Z,17.33
2019-02-20T23:19:55.715Z,18.43
2019-02-20T23:22:24.347Z,21.47
2019-02-20T23:24:52.964Z,20.23
2019-02-20T23:27:21.548Z,21.53
2019-02-20T23:29:50.279Z,17.43
2019-02-20T23:32:18.902Z,17.50
2019-02-20T23:34:47.488Z,20.13
2019-02-20T23:37:16.147Z,17.37
2019-02-20T23:39:44.837Z,22.53
2019-02-20T23:42:13.417Z,21.53
2019-02-20T23:44:42.116Z,16.47
2019-02-20T23:47:11.089Z,16.63
2019-02-20T23:49:39.698Z,15.77
2019-02-20T23:52:08.279Z,21.17
2019-02-20T23:54:37.161Z,22.43
2019-02-20T23:57:05.827Z,17.33
2019-02-20T23:59:34.436Z,18.70
